Main page
METAR-TAF:

METAR-TAF

Airports :

Southern Illinois Airport

Carbondale / Murphysboro, Illinois, United States

latitude: 37-46-59N, longitude: 089-14-42W, elevation: 410 ft

Current weather observation

The report was made 47 minutes ago, at 09:52 UTC
Wind 9 mph from the South/Southwest
Temperature 45°F
Humidity 53%
Pressure 30.14 in. Hg
Visibility: 10 miles
Overcast at a height of 6500 ft

METAR: KMDH 230952Z AUTO 21008KT 10SM OVC065 07/M02 A3014 RMK AO2 SLP208 T00671022

Time: 04:39 (10:39 UTC)


TAF: missing

Weather observations and forecasts of more than 4000 airports (METAR and TAF reports).

The available stations are represented by yellow and red dots on the map.

Hover mouse over dot to see the name of the station.

Then click to see weather observations and forecasts.

To change the map : click on the green buttons with a black cross to zoom in, on the green button with a dash to zoom out, or on the green arrows for adjacent maps.


METAR-TAF: